Pagrindinis puslapis
METAR-TAF:

METAR-TAF

Oro uostai :

Leonardo da Vinčio-Fjumičino oro uostas

Roma-Fjumičinas, Italija

platuma: 41-48N, ilguma: 012-14E, Aukštis: 2 m

Dabartinis oras

Ataskaita buvo paskelbta 11 minutes, ne 22:20 UTC
Vėjas 3 kt iš Šiaurės Rytų
Temperatūra 8°C
Drėgmė 93%
Slėgis 1026 hPa
Matomumas 10 km arba daugiau
nėra debesų žemiau 1500 m ir nėra kamuolinių lietaus debesų

METAR: LIRF 072220Z 04003KT CAVOK 08/07 Q1026 NOSIG

Laikas: 00:31 (22:31 UTC)

Prognozė

Ataskaita buvo paskelbta 5 valandos ir 31 minutes, ne 17:00 UTC
Prognozė galioja nuo 07 metu 18 UTC su 08 metu 24 UTC
Vėjas 4 kt nuo kintamojo kryptimis
Matomumas 10 km arba daugiau
nėra debesų žemiau 1500 m ir nėra kamuolinių lietaus debesų
Tapsmas
nuo 08 metu 08 UTC su 08 metu 10 UTC
Vėjas 10 kt iš Vakarų/Pietvakarių

TAF: LIRF 071700Z 0718/0824 VRB04KT CAVOK BECMG 0808/0810 25010KT

Orai ataskaitas ir orų prognozės (METAR, TAF).

turimą stotys yra geltonos ir raudonos taškus žemėlapyje.

Perkelti pele per norėdami pamatyti stoties vardą.

Tada spustelėkite, norėdami matyti oro stebėjimo ir prognozės.

Norėdami pakeisti žemėlapį: spustelėkite ant žalios mygtukų su juodo kryžiaus žemyn,; žalią mygtuką su brūkšneliu, jei norite nutolinti; arba žalių rodyklių gretimoms žemėlapius.


METAR-TAF: